« 定点 富山空港 2019/10/17 thu | トップページ | 北陸三県合同防災航空隊訓練 南砺市 2019/10/22 tue »

2019/10/19

定点 富山空港 2019/10/19 sat

本日もあまり天候は良く無さそうで、被災地への雨が気になります。

RJNT 182300Z VRB01KT 8000 FEW005 BKN070 BKN100 18/17 Q1014

20191019_rjnt_00ja6768

JA6768 B412EP 富山県消防防災

「とやま」さんがS&Rに出動

RJNT 190000Z 34006KT 300V010 9999 VCSH FEW007 BKN060 BKN100 19/18 Q1014

20191019_rjnt_01ja8971

朝は大型化でB6

20191019_rjnt_02ja8971

ANA313 RJTT-RJNT JA8971 B767-381ER

20191019_rjnt_03ja8971

昔の883を思い出します。

20191019_rjnt_04ja6768

防災さん帰ってきた

20191019_rjnt_05ja6768

JA6768 ↓

20191019_rjnt_06ja6768

後報を確認すると黒部峡谷で滑落事故の模様

20191019_rjnt_07ja8971

20191019_rjnt_08ja8971

このサイズがお似合いで

20191019_rjnt_09ja8971

北陸新幹線が思いのほか早く回復しそうなので、後しばらくかな。

20191019_rjnt_10ja8971

ANA316 RJNT-RJTT JA8971 B767-381ER

20191019_rjnt_11ja10ym

JA10YM A109SP SAK 富山県ドクターへり

雨雲が迫ってきたようで、いち早く閉店です。

RJNT 190100Z 36004KT 320V040 9999 VCSH FEW005 BKN010 BKN070 20/17 Q1015

20191019_rjnt_12b9951

CSN613 ZYTL-RJNT B-9951 A320-232

20191019_rjnt_13ja68an

ANA315 RJTT-RJNT JA68AN B737-881

RJNT 190200Z 04003KT 340V090 8000 VCSH FEW010 BKN013 21/17 Q1014

20191019_rjnt_14ja68an

20191019_rjnt_15ja68an

ANA1181 RJNT-RJCC JA68AN B737-881

20191019_rjnt_16b9951

20191019_rjnt_17b9951

20191019_rjnt_18b9951

CSN614 RJNT-ZYTL B-9951 A320-232

RJNT 190300Z 34006KT 310V010 8000 -SHRA BR FEW010 BKN013 FEW020CB 20/18 Q1014

20191019_rjnt_19b5260

雨雲が厚くなっています

20191019_rjnt_20b5260

20191019_rjnt_21b5260

CSH825 ZSPD-RJNT B-5260 B737-76D

20191019_rjnt_22b5260

雷雲を避けて能登半島の向こうまで逃げてから、やって来ました。

RJNT 190432Z VRB02KT 5000 -SHRA BR FEW003 BKN012 BKN025 19/18 Q1013 RMK 2ST003 5CU012 7CU025 A2992 P/FR

20191019_rjnt_23b5260

CSH826 RJNT-ZSPD B-5260 B737-76D

RJNT 190500Z 33003KT 300V020 8000 -SHRA FEW005 SCT012 BKN020 19/18 Q1013

20191019_rjnt_24ja06fj

なんがーいリボンを引いて

20191019_rjnt_25ja06fj

20191019_rjnt_26ja06fj

FDA8362 RJFG-RJNT JA06FJ ERJ-175STD

RJNT 190600Z 23004KT 5000 -SHRA BR BKN005 BKN025 BKN045 19/18 Q1014

20191019_rjnt_27ja06fj

出発時刻を過ぎても動かない、紫さん

20191019_rjnt_28ja68an

千歳便が先に降りることに

20191019_rjnt_29ja68an

ANA1182 RJCC-RJNT JA68AN B737-881

20191019_rjnt_30ja06fj

バゲージトラブルだった模様

20191019_rjnt_31ja06fj

FDA8365 RJNT-RJFG JA08FJ ERJ-175STD

20191019_rjnt_32ja06fj

明日は稚内からやって来ます。

 

|

« 定点 富山空港 2019/10/17 thu | トップページ | 北陸三県合同防災航空隊訓練 南砺市 2019/10/22 tue »

富山空港」カテゴリの記事

コメント

コメントを書く



(ウェブ上には掲載しません)


コメントは記事投稿者が公開するまで表示されません。



« 定点 富山空港 2019/10/17 thu | トップページ | 北陸三県合同防災航空隊訓練 南砺市 2019/10/22 tue »